sensor_id;sensor_type;location;lat;lon;timestamp;pressure;altitude;pressure_sealevel;temperature;humidity
67373;BME280;54257;54.496;18.412;2023-05-22T00:00:47;100440.81;;;12.66;58.47
67373;BME280;54257;54.496;18.412;2023-05-22T00:03:27;100440.95;;;12.64;58.46
67373;BME280;54257;54.496;18.412;2023-05-22T00:05:55;100440.37;;;12.61;58.22
67373;BME280;54257;54.496;18.412;2023-05-22T00:08:27;100439.14;;;12.58;58.37
67373;BME280;54257;54.496;18.412;2023-05-22T00:10:54;100438.42;;;12.56;58.45
67373;BME280;54257;54.496;18.412;2023-05-22T00:13:21;100433.18;;;12.50;58.64
67373;BME280;54257;54.496;18.412;2023-05-22T00:15:48;100435.66;;;12.45;58.67
67373;BME280;54257;54.496;18.412;2023-05-22T00:18:15;100439.20;;;12.41;58.63
67373;BME280;54257;54.496;18.412;2023-05-22T00:20:42;100437.44;;;12.38;59.01
67373;BME280;54257;54.496;18.412;2023-05-22T00:23:12;100439.45;;;12.35;59.16
67373;BME280;54257;54.496;18.412;2023-05-22T00:25:40;100436.33;;;12.33;59.38
67373;BME280;54257;54.496;18.412;2023-05-22T00:28:08;100438.80;;;12.28;59.45
67373;BME280;54257;54.496;18.412;2023-05-22T00:30:35;100438.55;;;12.23;59.41
67373;BME280;54257;54.496;18.412;2023-05-22T00:33:02;100437.11;;;12.20;59.61
67373;BME280;54257;54.496;18.412;2023-05-22T00:35:29;100436.93;;;12.19;59.66
67373;BME280;54257;54.496;18.412;2023-05-22T00:37:56;100433.00;;;12.20;59.76
67373;BME280;54257;54.496;18.412;2023-05-22T00:40:25;100433.16;;;12.19;59.94
67373;BME280;54257;54.496;18.412;2023-05-22T00:42:53;100430.38;;;12.16;60.04
67373;BME280;54257;54.496;18.412;2023-05-22T00:45:20;100428.77;;;12.12;60.01
67373;BME280;54257;54.496;18.412;2023-05-22T00:47:49;100422.70;;;12.08;60.08
67373;BME280;54257;54.496;18.412;2023-05-22T00:50:18;100426.32;;;12.09;60.18
67373;BME280;54257;54.496;18.412;2023-05-22T00:52:45;100422.54;;;12.08;60.45
67373;BME280;54257;54.496;18.412;2023-05-22T00:55:14;100424.70;;;12.05;60.72
67373;BME280;54257;54.496;18.412;2023-05-22T00:57:42;100417.63;;;12.03;60.95
67373;BME280;54257;54.496;18.412;2023-05-22T01:00:09;100415.36;;;11.99;61.23
67373;BME280;54257;54.496;18.412;2023-05-22T01:02:36;100414.91;;;11.95;61.30
67373;BME280;54257;54.496;18.412;2023-05-22T01:05:04;100413.66;;;11.91;61.41
67373;BME280;54257;54.496;18.412;2023-05-22T01:07:33;100413.11;;;11.89;61.47
67373;BME280;54257;54.496;18.412;2023-05-22T01:10:07;100412.23;;;11.88;61.77
67373;BME280;54257;54.496;18.412;2023-05-22T01:15:21;100414.95;;;11.79;62.09
67373;BME280;54257;54.496;18.412;2023-05-22T01:18:00;100413.01;;;11.76;62.18
67373;BME280;54257;54.496;18.412;2023-05-22T01:20:33;100411.79;;;11.74;62.38
67373;BME280;54257;54.496;18.412;2023-05-22T01:31:16;100417.76;;;11.65;62.88
67373;BME280;54257;54.496;18.412;2023-05-22T01:34:02;100419.44;;;11.64;63.10
67373;BME280;54257;54.496;18.412;2023-05-22T01:36:32;100417.14;;;11.60;63.45
67373;BME280;54257;54.496;18.412;2023-05-22T01:39:03;100416.04;;;11.56;63.46
67373;BME280;54257;54.496;18.412;2023-05-22T01:41:35;100409.27;;;11.51;63.67
67373;BME280;54257;54.496;18.412;2023-05-22T01:44:02;100410.19;;;11.46;63.90
67373;BME280;54257;54.496;18.412;2023-05-22T01:46:29;100411.14;;;11.42;63.97
67373;BME280;54257;54.496;18.412;2023-05-22T01:48:57;100407.11;;;11.38;64.19
67373;BME280;54257;54.496;18.412;2023-05-22T01:51:51;100410.96;;;11.33;64.32
67373;BME280;54257;54.496;18.412;2023-05-22T01:54:30;100408.70;;;11.32;64.29
67373;BME280;54257;54.496;18.412;2023-05-22T01:59:58;100409.14;;;11.29;64.57
67373;BME280;54257;54.496;18.412;2023-05-22T02:02:35;100408.09;;;11.28;64.68
67373;BME280;54257;54.496;18.412;2023-05-22T02:05:04;100404.83;;;11.26;64.79
67373;BME280;54257;54.496;18.412;2023-05-22T02:07:39;100408.75;;;11.26;64.79
67373;BME280;54257;54.496;18.412;2023-05-22T02:10:10;100407.89;;;11.25;64.86
67373;BME280;54257;54.496;18.412;2023-05-22T02:12:38;100404.11;;;11.25;64.88
67373;BME280;54257;54.496;18.412;2023-05-22T02:15:06;100405.95;;;11.23;64.88
67373;BME280;54257;54.496;18.412;2023-05-22T02:17:38;100407.98;;;11.22;64.94
67373;BME280;54257;54.496;18.412;2023-05-22T02:20:12;100407.96;;;11.21;65.01
67373;BME280;54257;54.496;18.412;2023-05-22T02:22:46;100406.74;;;11.20;64.87
67373;BME280;54257;54.496;18.412;2023-05-22T02:25:23;100406.89;;;11.19;65.04
67373;BME280;54257;54.496;18.412;2023-05-22T02:27:50;100403.24;;;11.16;65.04
67373;BME280;54257;54.496;18.412;2023-05-22T02:30:17;100403.91;;;11.16;65.08
67373;BME280;54257;54.496;18.412;2023-05-22T02:32:44;100400.19;;;11.17;64.92
67373;BME280;54257;54.496;18.412;2023-05-22T02:35:11;100402.41;;;11.17;64.98
67373;BME280;54257;54.496;18.412;2023-05-22T02:37:38;100401.40;;;11.17;65.18
67373;BME280;54257;54.496;18.412;2023-05-22T02:40:06;100401.73;;;11.17;65.24
67373;BME280;54257;54.496;18.412;2023-05-22T02:42:33;100399.49;;;11.16;65.20
67373;BME280;54257;54.496;18.412;2023-05-22T02:45:01;100397.76;;;11.15;65.42
67373;BME280;54257;54.496;18.412;2023-05-22T02:47:28;100392.34;;;11.11;65.73
67373;BME280;54257;54.496;18.412;2023-05-22T02:49:55;100389.09;;;11.09;65.86
67373;BME280;54257;54.496;18.412;2023-05-22T02:52:24;100389.22;;;11.08;65.87
67373;BME280;54257;54.496;18.412;2023-05-22T02:54:51;100387.11;;;11.06;65.98
67373;BME280;54257;54.496;18.412;2023-05-22T02:57:18;100385.41;;;11.06;65.92
67373;BME280;54257;54.496;18.412;2023-05-22T02:59:44;100389.02;;;11.07;65.91
67373;BME280;54257;54.496;18.412;2023-05-22T03:02:12;100385.27;;;11.07;66.10
67373;BME280;54257;54.496;18.412;2023-05-22T03:04:39;100386.83;;;11.08;66.21
67373;BME280;54257;54.496;18.412;2023-05-22T03:07:07;100386.31;;;11.08;66.41
67373;BME280;54257;54.496;18.412;2023-05-22T03:09:34;100386.48;;;11.08;66.54
67373;BME280;54257;54.496;18.412;2023-05-22T03:12:01;100388.23;;;11.10;66.58
67373;BME280;54257;54.496;18.412;2023-05-22T03:14:30;100385.89;;;11.12;66.75
67373;BME280;54257;54.496;18.412;2023-05-22T03:16:57;100381.16;;;11.15;66.84
67373;BME280;54257;54.496;18.412;2023-05-22T03:19:24;100379.70;;;11.19;66.82
67373;BME280;54257;54.496;18.412;2023-05-22T03:21:52;100378.48;;;11.27;66.97
67373;BME280;54257;54.496;18.412;2023-05-22T03:24:18;100376.42;;;11.34;67.24
67373;BME280;54257;54.496;18.412;2023-05-22T03:26:46;100379.30;;;11.41;67.32
67373;BME280;54257;54.496;18.412;2023-05-22T03:29:13;100377.54;;;11.47;67.41
67373;BME280;54257;54.496;18.412;2023-05-22T03:31:42;100376.64;;;11.54;67.36
67373;BME280;54257;54.496;18.412;2023-05-22T03:34:09;100374.04;;;11.61;67.39
67373;BME280;54257;54.496;18.412;2023-05-22T03:36:36;100373.09;;;11.65;67.28
67373;BME280;54257;54.496;18.412;2023-05-22T03:39:03;100369.15;;;11.65;67.37
67373;BME280;54257;54.496;18.412;2023-05-22T03:41:30;100372.13;;;11.68;67.61
67373;BME280;54257;54.496;18.412;2023-05-22T03:44:07;100374.54;;;11.69;67.79
67373;BME280;54257;54.496;18.412;2023-05-22T03:46:34;100375.92;;;11.70;67.95
67373;BME280;54257;54.496;18.412;2023-05-22T03:49:01;100371.81;;;11.70;68.16
67373;BME280;54257;54.496;18.412;2023-05-22T03:51:40;100370.88;;;11.74;68.10
67373;BME280;54257;54.496;18.412;2023-05-22T03:54:39;100371.80;;;11.78;68.32
67373;BME280;54257;54.496;18.412;2023-05-22T03:57:06;100372.27;;;11.83;68.67
67373;BME280;54257;54.496;18.412;2023-05-22T03:59:55;100368.51;;;11.84;68.66
67373;BME280;54257;54.496;18.412;2023-05-22T04:02:22;100374.11;;;11.91;69.02
67373;BME280;54257;54.496;18.412;2023-05-22T04:04:51;100373.69;;;11.96;69.01
67373;BME280;54257;54.496;18.412;2023-05-22T04:07:21;100370.88;;;12.02;68.98
67373;BME280;54257;54.496;18.412;2023-05-22T04:09:48;100372.88;;;12.09;69.03
67373;BME280;54257;54.496;18.412;2023-05-22T04:12:16;100370.60;;;12.16;69.26
67373;BME280;54257;54.496;18.412;2023-05-22T04:14:43;100367.46;;;12.23;69.57
67373;BME280;54257;54.496;18.412;2023-05-22T04:17:10;100364.85;;;12.30;69.83
67373;BME280;54257;54.496;18.412;2023-05-22T04:19:37;100364.09;;;12.37;69.87
67373;BME280;54257;54.496;18.412;2023-05-22T04:22:04;100364.57;;;12.45;69.95
67373;BME280;54257;54.496;18.412;2023-05-22T04:24:31;100364.19;;;12.54;70.08
67373;BME280;54257;54.496;18.412;2023-05-22T04:26:58;100362.43;;;12.62;70.48
67373;BME280;54257;54.496;18.412;2023-05-22T04:29:25;100358.95;;;12.71;70.86
67373;BME280;54257;54.496;18.412;2023-05-22T04:31:54;100355.15;;;12.80;71.25
67373;BME280;54257;54.496;18.412;2023-05-22T04:34:21;100353.73;;;12.90;71.68
67373;BME280;54257;54.496;18.412;2023-05-22T04:36:47;100354.18;;;12.98;72.09
67373;BME280;54257;54.496;18.412;2023-05-22T04:39:14;100353.11;;;13.08;72.53
67373;BME280;54257;54.496;18.412;2023-05-22T04:41:41;100354.63;;;13.19;72.98
67373;BME280;54257;54.496;18.412;2023-05-22T04:44:08;100352.03;;;13.30;73.21
67373;BME280;54257;54.496;18.412;2023-05-22T04:46:38;100349.41;;;13.39;73.39
67373;BME280;54257;54.496;18.412;2023-05-22T04:49:06;100352.77;;;13.49;73.22
67373;BME280;54257;54.496;18.412;2023-05-22T04:51:34;100348.41;;;13.59;73.05
67373;BME280;54257;54.496;18.412;2023-05-22T04:54:00;100350.41;;;13.68;72.97
67373;BME280;54257;54.496;18.412;2023-05-22T04:56:27;100351.20;;;13.79;73.01
67373;BME280;54257;54.496;18.412;2023-05-22T04:58:59;100347.19;;;13.90;72.96
67373;BME280;54257;54.496;18.412;2023-05-22T05:01:26;100345.39;;;14.01;72.88
67373;BME280;54257;54.496;18.412;2023-05-22T05:04:07;100345.85;;;14.14;72.75
67373;BME280;54257;54.496;18.412;2023-05-22T05:06:40;100343.88;;;14.26;72.71
67373;BME280;54257;54.496;18.412;2023-05-22T05:09:46;100343.66;;;14.42;72.07
67373;BME280;54257;54.496;18.412;2023-05-22T05:12:16;100338.97;;;14.54;71.90
67373;BME280;54257;54.496;18.412;2023-05-22T05:14:55;100341.63;;;14.71;71.60
67373;BME280;54257;54.496;18.412;2023-05-22T05:17:22;100342.94;;;14.89;71.28
67373;BME280;54257;54.496;18.412;2023-05-22T05:20:00;100342.52;;;15.08;71.14
67373;BME280;54257;54.496;18.412;2023-05-22T05:22:36;100339.33;;;15.29;70.69
67373;BME280;54257;54.496;18.412;2023-05-22T05:25:40;100340.11;;;15.57;70.13
67373;BME280;54257;54.496;18.412;2023-05-22T05:28:16;100341.05;;;15.86;69.35
67373;BME280;54257;54.496;18.412;2023-05-22T05:30:50;100337.63;;;16.14;64.16
67373;BME280;54257;54.496;18.412;2023-05-22T05:33:27;100332.43;;;16.37;61.67
67373;BME280;54257;54.496;18.412;2023-05-22T05:35:54;100335.68;;;16.65;61.71
67373;BME280;54257;54.496;18.412;2023-05-22T05:38:45;100337.00;;;16.96;61.41
67373;BME280;54257;54.496;18.412;2023-05-22T05:41:15;100338.96;;;17.23;60.63
67373;BME280;54257;54.496;18.412;2023-05-22T05:43:42;100335.36;;;17.49;59.27
67373;BME280;54257;54.496;18.412;2023-05-22T05:46:15;100336.92;;;17.79;60.00
67373;BME280;54257;54.496;18.412;2023-05-22T05:48:46;100334.57;;;18.18;59.40
67373;BME280;54257;54.496;18.412;2023-05-22T05:51:25;100331.52;;;18.49;57.00
67373;BME280;54257;54.496;18.412;2023-05-22T05:53:53;100333.11;;;18.82;55.39
67373;BME280;54257;54.496;18.412;2023-05-22T05:56:23;100331.76;;;19.08;53.69
67373;BME280;54257;54.496;18.412;2023-05-22T05:58:50;100334.25;;;19.31;52.01
67373;BME280;54257;54.496;18.412;2023-05-22T06:01:32;100334.15;;;19.51;49.40
67373;BME280;54257;54.496;18.412;2023-05-22T06:04:02;100330.45;;;19.81;50.95
67373;BME280;54257;54.496;18.412;2023-05-22T06:06:32;100328.04;;;20.12;49.95
67373;BME280;54257;54.496;18.412;2023-05-22T06:09:02;100320.88;;;20.36;48.72
67373;BME280;54257;54.496;18.412;2023-05-22T06:11:33;100314.98;;;20.65;49.27
67373;BME280;54257;54.496;18.412;2023-05-22T06:14:03;100316.35;;;21.02;48.27
67373;BME280;54257;54.496;18.412;2023-05-22T06:16:34;100316.30;;;21.20;43.92
67373;BME280;54257;54.496;18.412;2023-05-22T06:19:01;100312.29;;;21.38;46.02
67373;BME280;54257;54.496;18.412;2023-05-22T06:21:28;100314.52;;;21.71;44.37
67373;BME280;54257;54.496;18.412;2023-05-22T06:23:55;100312.62;;;21.77;41.96
67373;BME280;54257;54.496;18.412;2023-05-22T06:26:22;100309.88;;;21.90;42.99
67373;BME280;54257;54.496;18.412;2023-05-22T06:28:51;100307.54;;;22.29;43.86
67373;BME280;54257;54.496;18.412;2023-05-22T06:31:21;100308.81;;;22.66;42.48
67373;BME280;54257;54.496;18.412;2023-05-22T06:33:48;100303.22;;;22.92;41.89
67373;BME280;54257;54.496;18.412;2023-05-22T06:36:14;100306.48;;;23.12;40.71
67373;BME280;54257;54.496;18.412;2023-05-22T06:38:41;100303.69;;;23.35;40.85
67373;BME280;54257;54.496;18.412;2023-05-22T06:41:09;100302.05;;;23.61;40.04
67373;BME280;54257;54.496;18.412;2023-05-22T06:43:35;100300.40;;;23.86;39.36
67373;BME280;54257;54.496;18.412;2023-05-22T06:46:02;100295.54;;;24.06;39.47
67373;BME280;54257;54.496;18.412;2023-05-22T06:48:34;100293.42;;;24.27;39.88
67373;BME280;54257;54.496;18.412;2023-05-22T06:51:02;100293.98;;;24.52;40.05
67373;BME280;54257;54.496;18.412;2023-05-22T06:53:35;100293.13;;;24.71;39.44
67373;BME280;54257;54.496;18.412;2023-05-22T06:56:07;100294.23;;;24.83;38.13
67373;BME280;54257;54.496;18.412;2023-05-22T06:58:44;100297.85;;;25.04;37.55
67373;BME280;54257;54.496;18.412;2023-05-22T07:01:12;100297.66;;;25.14;36.49
67373;BME280;54257;54.496;18.412;2023-05-22T07:03:39;100293.36;;;25.25;36.20
67373;BME280;54257;54.496;18.412;2023-05-22T07:06:07;100293.70;;;25.35;35.98
67373;BME280;54257;54.496;18.412;2023-05-22T07:08:47;100289.34;;;25.57;35.98
67373;BME280;54257;54.496;18.412;2023-05-22T07:11:14;100289.20;;;25.79;34.07
67373;BME280;54257;54.496;18.412;2023-05-22T07:13:43;100288.05;;;25.93;33.04
67373;BME280;54257;54.496;18.412;2023-05-22T07:16:11;100283.11;;;25.98;33.11
67373;BME280;54257;54.496;18.412;2023-05-22T07:18:38;100280.42;;;26.12;32.02
67373;BME280;54257;54.496;18.412;2023-05-22T07:21:21;100283.82;;;26.19;31.72
67373;BME280;54257;54.496;18.412;2023-05-22T07:23:59;100280.09;;;26.16;31.50
67373;BME280;54257;54.496;18.412;2023-05-22T07:26:28;100281.20;;;26.31;32.22
67373;BME280;54257;54.496;18.412;2023-05-22T07:29:01;100272.18;;;26.57;31.61
67373;BME280;54257;54.496;18.412;2023-05-22T07:31:34;100278.00;;;26.76;29.72
67373;BME280;54257;54.496;18.412;2023-05-22T07:34:04;100275.52;;;26.73;28.28
67373;BME280;54257;54.496;18.412;2023-05-22T07:36:33;100279.67;;;26.74;28.90
67373;BME280;54257;54.496;18.412;2023-05-22T07:39:00;100281.43;;;26.89;28.20
67373;BME280;54257;54.496;18.412;2023-05-22T07:41:35;100277.86;;;26.98;27.13
67373;BME280;54257;54.496;18.412;2023-05-22T07:44:18;100283.16;;;27.17;26.80
67373;BME280;54257;54.496;18.412;2023-05-22T07:46:48;100281.91;;;26.90;24.53
67373;BME280;54257;54.496;18.412;2023-05-22T07:49:29;100277.13;;;26.84;27.01
67373;BME280;54257;54.496;18.412;2023-05-22T07:52:33;100278.43;;;27.06;27.00
67373;BME280;54257;54.496;18.412;2023-05-22T07:55:03;100278.73;;;27.10;26.32
67373;BME280;54257;54.496;18.412;2023-05-22T07:57:30;100276.84;;;27.25;27.36
67373;BME280;54257;54.496;18.412;2023-05-22T07:59:58;100274.36;;;27.36;26.29
67373;BME280;54257;54.496;18.412;2023-05-22T08:02:25;100269.98;;;27.51;26.11
67373;BME280;54257;54.496;18.412;2023-05-22T08:04:52;100269.05;;;27.66;25.35
67373;BME280;54257;54.496;18.412;2023-05-22T08:07:22;100272.06;;;27.73;25.27
67373;BME280;54257;54.496;18.412;2023-05-22T08:09:49;100269.59;;;27.73;23.85
67373;BME280;54257;54.496;18.412;2023-05-22T08:12:17;100277.63;;;27.41;23.73
67373;BME280;54257;54.496;18.412;2023-05-22T08:14:43;100274.75;;;27.50;23.75
67373;BME280;54257;54.496;18.412;2023-05-22T08:17:10;100269.45;;;27.65;24.02
67373;BME280;54257;54.496;18.412;2023-05-22T08:19:37;100274.81;;;27.81;23.99
67373;BME280;54257;54.496;18.412;2023-05-22T08:22:04;100278.89;;;27.91;23.69
67373;BME280;54257;54.496;18.412;2023-05-22T08:24:31;100276.14;;;28.07;23.41
67373;BME280;54257;54.496;18.412;2023-05-22T08:26:58;100273.98;;;28.15;23.50
67373;BME280;54257;54.496;18.412;2023-05-22T08:29:27;100273.77;;;28.26;23.38
67373;BME280;54257;54.496;18.412;2023-05-22T08:31:54;100276.13;;;28.39;23.45
67373;BME280;54257;54.496;18.412;2023-05-22T08:34:24;100276.23;;;28.30;21.54
67373;BME280;54257;54.496;18.412;2023-05-22T08:36:51;100274.48;;;28.19;22.35
67373;BME280;54257;54.496;18.412;2023-05-22T08:39:20;100272.55;;;28.30;22.89
67373;BME280;54257;54.496;18.412;2023-05-22T08:41:49;100271.86;;;28.40;22.94
67373;BME280;54257;54.496;18.412;2023-05-22T08:44:16;100272.16;;;28.47;23.21
67373;BME280;54257;54.496;18.412;2023-05-22T08:46:45;100277.23;;;28.51;22.22
67373;BME280;54257;54.496;18.412;2023-05-22T08:49:12;100269.98;;;28.59;22.53
67373;BME280;54257;54.496;18.412;2023-05-22T08:51:40;100271.74;;;28.62;21.74
67373;BME280;54257;54.496;18.412;2023-05-22T08:54:17;100274.13;;;28.67;22.32
67373;BME280;54257;54.496;18.412;2023-05-22T08:56:58;100269.48;;;28.81;22.31
67373;BME280;54257;54.496;18.412;2023-05-22T08:59:26;100269.36;;;28.87;21.51
67373;BME280;54257;54.496;18.412;2023-05-22T09:01:55;100267.10;;;28.73;22.05
67373;BME280;54257;54.496;18.412;2023-05-22T09:04:23;100264.54;;;28.75;21.66
67373;BME280;54257;54.496;18.412;2023-05-22T09:06:51;100264.54;;;28.85;21.45
67373;BME280;54257;54.496;18.412;2023-05-22T09:09:18;100259.33;;;28.74;22.06
67373;BME280;54257;54.496;18.412;2023-05-22T09:11:45;100262.19;;;28.76;21.30
67373;BME280;54257;54.496;18.412;2023-05-22T09:14:15;100262.46;;;28.78;20.76
67373;BME280;54257;54.496;18.412;2023-05-22T09:16:44;100254.98;;;28.72;21.28
67373;BME280;54257;54.496;18.412;2023-05-22T09:19:12;100256.92;;;28.70;20.96
67373;BME280;54257;54.496;18.412;2023-05-22T09:21:40;100253.22;;;28.76;22.07
67373;BME280;54257;54.496;18.412;2023-05-22T09:24:07;100252.98;;;29.00;21.49
67373;BME280;54257;54.496;18.412;2023-05-22T09:26:38;100253.35;;;29.13;21.98
67373;BME280;54257;54.496;18.412;2023-05-22T09:29:05;100254.97;;;29.15;20.85
67373;BME280;54257;54.496;18.412;2023-05-22T09:31:42;100249.48;;;29.16;21.07
67373;BME280;54257;54.496;18.412;2023-05-22T09:34:09;100248.63;;;29.12;21.13
67373;BME280;54257;54.496;18.412;2023-05-22T09:36:36;100245.71;;;29.27;21.49
67373;BME280;54257;54.496;18.412;2023-05-22T09:39:03;100241.29;;;29.40;21.57
67373;BME280;54257;54.496;18.412;2023-05-22T09:41:36;100244.56;;;29.62;21.69
67373;BME280;54257;54.496;18.412;2023-05-22T09:44:15;100243.67;;;29.75;21.07
67373;BME280;54257;54.496;18.412;2023-05-22T09:46:45;100241.85;;;29.54;20.59
67373;BME280;54257;54.496;18.412;2023-05-22T09:49:12;100242.60;;;29.47;20.17
67373;BME280;54257;54.496;18.412;2023-05-22T09:51:39;100237.39;;;29.43;20.76
67373;BME280;54257;54.496;18.412;2023-05-22T09:54:09;100237.22;;;29.43;20.94
67373;BME280;54257;54.496;18.412;2023-05-22T09:56:39;100237.40;;;29.40;20.45
67373;BME280;54257;54.496;18.412;2023-05-22T09:59:08;100237.94;;;29.08;20.26
67373;BME280;54257;54.496;18.412;2023-05-22T10:01:37;100235.20;;;28.61;20.22
67373;BME280;54257;54.496;18.412;2023-05-22T10:04:05;100232.27;;;28.10;21.12
67373;BME280;54257;54.496;18.412;2023-05-22T10:06:36;100230.48;;;28.17;21.22
67373;BME280;54257;54.496;18.412;2023-05-22T10:09:05;100225.16;;;28.35;20.99
67373;BME280;54257;54.496;18.412;2023-05-22T10:11:36;100230.30;;;28.38;20.90
67373;BME280;54257;54.496;18.412;2023-05-22T10:14:04;100227.78;;;28.18;20.76
67373;BME280;54257;54.496;18.412;2023-05-22T10:16:32;100224.77;;;27.95;20.95
67373;BME280;54257;54.496;18.412;2023-05-22T10:19:04;100218.80;;;27.95;21.65
67373;BME280;54257;54.496;18.412;2023-05-22T10:21:34;100216.98;;;27.93;21.89
67373;BME280;54257;54.496;18.412;2023-05-22T10:24:02;100216.85;;;28.06;21.82
67373;BME280;54257;54.496;18.412;2023-05-22T10:26:32;100217.05;;;28.02;22.15
67373;BME280;54257;54.496;18.412;2023-05-22T10:29:21;100215.59;;;28.23;22.25
67373;BME280;54257;54.496;18.412;2023-05-22T10:31:57;100214.77;;;28.65;21.90
67373;BME280;54257;54.496;18.412;2023-05-22T10:34:39;100210.42;;;28.93;21.62
67373;BME280;54257;54.496;18.412;2023-05-22T10:37:18;100204.77;;;29.13;21.24
67373;BME280;54257;54.496;18.412;2023-05-22T10:42:30;100199.61;;;28.79;20.75
67373;BME280;54257;54.496;18.412;2023-05-22T10:44:59;100198.76;;;28.56;22.00
67373;BME280;54257;54.496;18.412;2023-05-22T10:47:26;100198.17;;;28.73;22.44
67373;BME280;54257;54.496;18.412;2023-05-22T10:50:03;100195.27;;;28.78;22.00
67373;BME280;54257;54.496;18.412;2023-05-22T10:52:30;100196.52;;;28.65;21.11
67373;BME280;54257;54.496;18.412;2023-05-22T10:54:58;100190.98;;;28.50;20.50
67373;BME280;54257;54.496;18.412;2023-05-22T10:57:26;100192.44;;;28.05;22.21
67373;BME280;54257;54.496;18.412;2023-05-22T11:02:41;100190.98;;;27.89;22.41
67373;BME280;54257;54.496;18.412;2023-05-22T11:07:45;100193.67;;;28.39;22.52
67373;BME280;54257;54.496;18.412;2023-05-22T11:10:13;100190.18;;;28.62;21.56
67373;BME280;54257;54.496;18.412;2023-05-22T11:12:40;100187.65;;;28.88;22.10
67373;BME280;54257;54.496;18.412;2023-05-22T11:15:10;100186.40;;;28.92;21.28
67373;BME280;54257;54.496;18.412;2023-05-22T11:17:42;100186.49;;;28.78;22.47
67373;BME280;54257;54.496;18.412;2023-05-22T11:20:22;100183.92;;;28.92;22.50
67373;BME280;54257;54.496;18.412;2023-05-22T11:22:55;100184.25;;;29.18;22.15
67373;BME280;54257;54.496;18.412;2023-05-22T11:25:25;100183.91;;;29.27;21.89
67373;BME280;54257;54.496;18.412;2023-05-22T11:27:55;100178.25;;;29.37;21.08
67373;BME280;54257;54.496;18.412;2023-05-22T11:30:27;100179.02;;;29.20;20.69
67373;BME280;54257;54.496;18.412;2023-05-22T11:32:59;100176.86;;;28.83;20.93
67373;BME280;54257;54.496;18.412;2023-05-22T11:35:27;100169.70;;;28.89;21.67
67373;BME280;54257;54.496;18.412;2023-05-22T11:37:54;100169.04;;;28.75;21.12
67373;BME280;54257;54.496;18.412;2023-05-22T11:40:26;100168.61;;;28.73;21.80
67373;BME280;54257;54.496;18.412;2023-05-22T11:42:55;100167.33;;;28.68;21.67
67373;BME280;54257;54.496;18.412;2023-05-22T11:45:22;100171.42;;;28.41;21.06
67373;BME280;54257;54.496;18.412;2023-05-22T11:47:52;100168.58;;;27.78;22.51
67373;BME280;54257;54.496;18.412;2023-05-22T11:50:18;100172.21;;;27.92;22.62
67373;BME280;54257;54.496;18.412;2023-05-22T11:52:46;100164.30;;;27.89;23.85
67373;BME280;54257;54.496;18.412;2023-05-22T11:55:13;100162.56;;;28.22;24.34
67373;BME280;54257;54.496;18.412;2023-05-22T11:57:40;100164.29;;;28.50;23.99
67373;BME280;54257;54.496;18.412;2023-05-22T12:00:08;100166.69;;;28.70;23.66
67373;BME280;54257;54.496;18.412;2023-05-22T12:02:35;100162.25;;;28.64;22.19
67373;BME280;54257;54.496;18.412;2023-05-22T12:05:05;100161.40;;;28.57;22.76
67373;BME280;54257;54.496;18.412;2023-05-22T12:07:35;100160.95;;;28.69;23.47
67373;BME280;54257;54.496;18.412;2023-05-22T12:10:03;100157.77;;;28.72;22.98
67373;BME280;54257;54.496;18.412;2023-05-22T12:12:32;100155.05;;;28.70;21.38
67373;BME280;54257;54.496;18.412;2023-05-22T12:14:59;100153.16;;;28.57;22.90
67373;BME280;54257;54.496;18.412;2023-05-22T12:17:27;100155.77;;;28.67;24.36
67373;BME280;54257;54.496;18.412;2023-05-22T12:19:54;100153.15;;;28.85;24.08
67373;BME280;54257;54.496;18.412;2023-05-22T12:22:21;100149.22;;;29.00;23.84
67373;BME280;54257;54.496;18.412;2023-05-22T12:24:51;100144.48;;;29.18;23.27
67373;BME280;54257;54.496;18.412;2023-05-22T12:27:18;100143.15;;;29.31;22.72
67373;BME280;54257;54.496;18.412;2023-05-22T12:29:45;100135.44;;;29.43;22.38
67373;BME280;54257;54.496;18.412;2023-05-22T12:32:12;100135.50;;;29.42;22.34
67373;BME280;54257;54.496;18.412;2023-05-22T12:34:50;100137.27;;;29.36;22.53
67373;BME280;54257;54.496;18.412;2023-05-22T12:37:24;100133.65;;;29.25;21.17
67373;BME280;54257;54.496;18.412;2023-05-22T12:39:55;100131.52;;;29.23;21.89
67373;BME280;54257;54.496;18.412;2023-05-22T12:42:32;100130.98;;;29.23;21.84
67373;BME280;54257;54.496;18.412;2023-05-22T12:45:05;100125.10;;;29.21;22.67
67373;BME280;54257;54.496;18.412;2023-05-22T12:47:33;100130.80;;;29.20;22.24
67373;BME280;54257;54.496;18.412;2023-05-22T12:50:03;100126.71;;;29.05;22.59
67373;BME280;54257;54.496;18.412;2023-05-22T12:52:30;100125.43;;;29.09;22.09
67373;BME280;54257;54.496;18.412;2023-05-22T12:54:56;100126.52;;;29.12;22.50
67373;BME280;54257;54.496;18.412;2023-05-22T12:57:24;100126.18;;;29.15;23.19
67373;BME280;54257;54.496;18.412;2023-05-22T12:59:51;100119.59;;;29.16;22.57
67373;BME280;54257;54.496;18.412;2023-05-22T13:02:18;100116.63;;;29.16;22.70
67373;BME280;54257;54.496;18.412;2023-05-22T13:04:45;100119.03;;;29.17;22.83
67373;BME280;54257;54.496;18.412;2023-05-22T13:07:12;100119.21;;;29.23;23.42
67373;BME280;54257;54.496;18.412;2023-05-22T13:09:39;100117.58;;;29.23;22.70
67373;BME280;54257;54.496;18.412;2023-05-22T13:12:06;100115.23;;;29.25;22.53
67373;BME280;54257;54.496;18.412;2023-05-22T13:14:33;100113.85;;;29.24;22.08
67373;BME280;54257;54.496;18.412;2023-05-22T13:17:00;100109.16;;;29.14;22.13